Time;durP1;ratioP1;P1;durP2;ratioP2;P2;SDS_P1;SDS_P2;PMS_P1;PMS_P2;Temp;Humidity;BMP_temperature;BMP_pressure;BME280_temperature;BME280_humidity;BME280_pressure;Samples;Min_cycle;Max_cycle;Signal;HPM_P1;HPM_P2
2023/01/08 00:00:02;;;;;;;;;;;;;;;1.58;100.00;95324.72;10410275;28;2053;-77
2023/01/08 00:05:05;;;;;;;;;;;;;;;1.65;100.00;95319.31;10413868;28;2016;-77
2023/01/08 00:10:09;;;;;;;;;;;;;;;1.73;100.00;95305.75;10419948;28;1986;-74
2023/01/08 00:15:12;;;;;;;;;;;;;;;1.77;100.00;95295.47;10413557;28;2027;-75
2023/01/08 00:20:15;;;;;;;;;;;;;;;1.76;100.00;95280.63;10412362;28;2012;-75
2023/01/08 00:25:18;;;;;;;;;;;;;;;1.70;100.00;95274.38;10412485;28;2028;-77
2023/01/08 00:30:22;;;;;;;;;;;;;;;1.73;100.00;95260.69;10410905;28;2091;-76
2023/01/08 00:35:25;;;;;;;;;;;;;;;1.80;100.00;95252.63;10410616;28;2021;-75
2023/01/08 00:40:28;;;;;;;;;;;;;;;1.81;100.00;95244.44;10412874;28;2102;-76
2023/01/08 00:45:32;;;;;;;;;;;;;;;1.86;100.00;95241.09;10412569;28;2110;-77
2023/01/08 00:50:35;;;;;;;;;;;;;;;2.00;100.00;95229.22;10410336;28;2044;-77
2023/01/08 00:55:38;;;;;;;;;;;;;;;2.28;100.00;95217.03;10410428;28;2060;-76
2023/01/08 01:00:41;;;;;;;;;;;;;;;2.34;100.00;95210.78;10408827;28;2169;-75
2023/01/08 01:05:45;;;;;;;;;;;;;;;2.20;100.00;95206.81;10409088;28;2055;-76
2023/01/08 01:10:48;;;;;;;;;;;;;;;1.99;100.00;95214.34;10416256;28;2025;-74
2023/01/08 01:15:51;;;;;;;;;;;;;;;2.04;100.00;95227.72;10410174;28;2214;-76
2023/01/08 01:20:54;;;;;;;;;;;;;;;1.91;100.00;95243.88;10410946;28;2182;-75
2023/01/08 01:25:58;;;;;;;;;;;;;;;1.86;100.00;95243.75;10410645;28;1973;-76
2023/01/08 01:31:02;;;;;;;;;;;;;;;1.71;100.00;95248.69;10410019;28;1973;-76
2023/01/08 01:36:05;;;;;;;;;;;;;;;1.57;100.00;95246.28;10410377;28;2035;-76
2023/01/08 01:41:09;;;;;;;;;;;;;;;1.36;100.00;95241.56;10411079;28;2131;-76
2023/01/08 01:46:12;;;;;;;;;;;;;;;1.44;100.00;95243.06;10411149;28;2146;-76
2023/01/08 01:51:15;;;;;;;;;;;;;;;1.37;100.00;95253.75;10409911;28;1992;-76
2023/01/08 01:56:18;;;;;;;;;;;;;;;1.27;100.00;95242.91;10409510;28;2030;-76
2023/01/08 02:01:21;;;;;;;;;;;;;;;1.14;100.00;95224.59;10408767;28;1996;-75
2023/01/08 02:06:25;;;;;;;;;;;;;;;1.06;100.00;95223.88;10409338;28;2072;-75
2023/01/08 02:11:28;;;;;;;;;;;;;;;1.01;100.00;95210.53;10411493;28;2158;-76
2023/01/08 02:16:31;;;;;;;;;;;;;;;1.04;100.00;95207.44;10406940;28;2044;-75
2023/01/08 02:21:34;;;;;;;;;;;;;;;1.03;100.00;95210.31;10410541;28;2023;-76
2023/01/08 02:26:38;;;;;;;;;;;;;;;0.96;100.00;95189.25;10406813;28;2019;-76
2023/01/08 02:31:41;;;;;;;;;;;;;;;0.91;100.00;95178.53;10408046;28;2096;-76
2023/01/08 02:36:43;;;;;;;;;;;2.10;99.90;;;0.97;100.00;95179.47;10408062;28;2146;-76
2023/01/08 02:41:46;;;;;;;;;;;2.30;99.90;;;1.04;100.00;95188.91;10407590;28;2079;-74
2023/01/08 02:46:49;;;;;;;;;;;2.50;99.90;;;1.10;100.00;95175.81;10409514;28;2061;-76
2023/01/08 02:51:52;;;;;;;;;;;2.40;99.90;;;1.11;100.00;95175.56;10413482;28;2112;-75
2023/01/08 02:56:55;;;;;;;;;;;2.40;99.90;;;1.12;100.00;95176.38;10404964;28;1984;-76
2023/01/08 03:01:58;;;;;;;;;;;2.40;99.90;;;1.01;100.00;95175.31;10406898;28;2020;-77
2023/01/08 03:07:01;;;;;;;;;;;2.40;99.90;;;1.03;100.00;95171.41;10406827;28;2027;-77
2023/01/08 03:12:03;;;;;;;;;;;2.30;99.90;;;1.14;100.00;95153.91;10416036;28;2106;-74
2023/01/08 03:17:06;;;;;;;;;;;2.40;99.90;;;1.11;100.00;95151.75;10410014;28;2097;-76
2023/01/08 03:22:09;;;;;;;;;;;2.40;99.90;;;1.08;100.00;95145.09;10408555;28;2026;-75
2023/01/08 03:27:12;;;;;;;;;;;2.40;99.90;;;1.09;100.00;95130.00;10407517;28;2025;-76
2023/01/08 03:32:14;;;;;;;;;;;2.40;99.90;;;1.19;100.00;95129.41;10408681;28;2013;-75
2023/01/08 03:37:17;;;;;;;;;;;2.40;99.90;;;1.10;100.00;95123.66;10413164;28;2356;-75
2023/01/08 03:42:20;;;;;;;;;;;2.40;99.90;;;1.06;100.00;95110.06;10416376;28;2075;-75
2023/01/08 03:47:23;;;;;;;;;;;2.40;99.90;;;1.05;100.00;95113.75;10416222;28;1999;-76
2023/01/08 03:52:25;;;;;;;;;;;2.30;99.90;;;1.23;100.00;95098.81;10413136;28;2040;-77
2023/01/08 03:57:28;;;;;;;;;;;2.30;99.90;;;1.16;100.00;95098.91;10415543;28;2052;-76
2023/01/08 04:02:31;;;;;;;;;;;2.40;99.90;;;1.05;100.00;95092.59;10413100;28;2086;-76
2023/01/08 04:07:34;;;;;;;;;;;2.40;99.90;;;0.97;100.00;95085.00;10412666;28;2091;-75
2023/01/08 04:12:37;;;;;;;;;;;2.30;99.90;;;1.10;100.00;95077.88;10420860;28;2012;-75
2023/01/08 04:17:39;;;;;;;;;;;2.60;99.90;;;1.10;100.00;95077.88;10410987;28;2035;-75
2023/01/08 04:22:42;;;;;;;;;;;2.40;99.90;;;1.14;100.00;95073.69;10410213;28;2066;-76
2023/01/08 04:27:45;;;;;;;;;;;2.40;99.90;;;1.24;100.00;95085.31;10410486;28;2090;-75
2023/01/08 04:32:48;;;;;;;;;;;2.40;99.90;;;1.23;100.00;95075.78;10411630;28;1976;-76
2023/01/08 04:37:51;;;;;;;;;;;2.40;99.90;;;1.30;100.00;95073.00;10412324;28;2040;-75
2023/01/08 04:42:53;;;;;;;;;;;2.50;99.90;;;1.47;100.00;95062.50;10412192;28;2117;-75
2023/01/08 04:47:56;;;;;;;;;;;2.50;99.90;;;1.44;100.00;95053.16;10410793;28;2043;-74
2023/01/08 04:52:59;;;;;;;;;;;2.60;99.90;;;1.45;100.00;95046.81;10411193;28;2079;-75
2023/01/08 04:58:02;;;;;;;;;;;2.60;99.90;;;1.39;100.00;95039.81;10411425;28;2030;-74
2023/01/08 05:03:04;;;;;;;;;;;2.70;99.90;;;1.35;100.00;95039.50;10411582;28;2122;-75
2023/01/08 05:08:07;;;;;;;;;;;2.60;99.90;;;1.38;100.00;95034.75;10409348;28;2020;-76
2023/01/08 05:13:10;;;;;;;;;;;2.60;99.90;;;1.28;100.00;95044.13;10410803;28;2012;-76
2023/01/08 05:18:13;;;;;;;;;;;2.50;99.90;;;1.21;100.00;95048.75;10412083;28;2055;-74
2023/01/08 05:23:15;;;;;;;;;;;2.50;99.90;;;1.22;100.00;95045.06;10412932;28;2011;-75
2023/01/08 05:28:18;;;;;;;;;;;2.40;99.90;;;1.15;100.00;95025.84;10410539;28;2013;-74
2023/01/08 05:33:21;;;;;;;;;;;2.40;99.90;;;1.19;100.00;95028.81;10410321;28;2084;-78
2023/01/08 05:38:23;;;;;;;;;;;2.40;99.90;;;1.23;100.00;95020.19;10408293;28;2079;-76
2023/01/08 05:43:26;;;;;;;;;;;2.40;99.90;;;1.22;100.00;95017.78;10409510;28;2127;-75
2023/01/08 05:48:29;;;;;;;;;;;2.40;99.90;;;1.22;100.00;95020.41;10412245;28;2035;-76
2023/01/08 05:53:32;;;;;;;;;;;2.40;99.90;;;1.34;100.00;95013.25;10406835;28;2047;-76
2023/01/08 05:58:34;;;;;;;;;;;2.50;99.90;;;1.34;100.00;95013.25;10409250;28;2040;-76
2023/01/08 06:03:37;;;;;;;;;;;2.90;99.90;;;1.37;100.00;95028.66;10408225;28;2087;-76
2023/01/08 06:08:40;;;;;;;;;;;2.50;99.90;;;1.34;100.00;95032.59;10410265;28;2028;-76
2023/01/08 06:13:42;;;;;;;;;;;2.60;99.90;;;1.43;100.00;95040.97;10412192;28;2040;-77
2023/01/08 06:18:45;;;;;;;;;;;2.60;99.90;;;1.49;100.00;95033.94;10409592;28;2100;-75
2023/01/08 06:23:48;;;;;;;;;;;2.60;99.90;;;1.47;100.00;95042.13;10408456;28;1988;-75
2023/01/08 06:28:51;;;;;;;;;;;2.60;99.90;;;1.51;100.00;95040.59;10407925;28;2130;-76
2023/01/08 06:33:53;;;;;;;;;;;2.60;99.90;;;1.46;100.00;95018.50;10409980;28;2063;-76
2023/01/08 06:38:56;;;;;;;;;;;2.60;99.90;;;1.47;100.00;95022.78;10407578;28;2143;-78
2023/01/08 06:43:59;;;;;;;;;;;2.60;99.90;;;1.50;100.00;95025.75;10404575;28;2095;-76
2023/01/08 06:49:02;;;;;;;;;;;2.60;99.90;;;1.56;100.00;95035.41;10409943;28;2048;-75
2023/01/08 06:54:05;;;;;;;;;;;2.60;99.90;;;1.58;100.00;95038.63;10404164;28;1992;-77
2023/01/08 06:59:07;;;;;;;;;;;2.70;99.90;;;1.61;100.00;95056.69;10406049;28;2180;-75
2023/01/08 07:04:10;;;;;;;;;;;2.70;99.90;;;1.63;100.00;95059.91;10405607;28;2000;-75
2023/01/08 07:09:13;;;;;;;;;;;2.70;99.90;;;1.64;100.00;95055.41;10414027;28;2035;-75
2023/01/08 07:14:16;;;;;;;;;;;2.70;99.90;;;1.75;100.00;95051.13;10415548;28;2070;-77
2023/01/08 07:19:18;;;;;;;;;;;2.80;99.90;;;1.82;100.00;95043.84;10414837;28;1984;-75
2023/01/08 07:24:21;;;;;;;;;;;2.80;99.90;;;1.97;100.00;95054.72;10414750;28;2261;-76
2023/01/08 07:29:24;;;;;;;;;;;2.90;99.90;;;2.08;100.00;95048.56;10413101;28;2024;-74
2023/01/08 07:34:26;;;;;;;;;;;3.00;99.90;;;2.13;100.00;95048.66;10413331;28;2043;-76
2023/01/08 07:39:29;;;;;;;;;;;3.20;99.90;;;2.30;100.00;95039.94;10414569;28;2080;-77
2023/01/08 07:44:32;;;;;;;;;;;3.20;99.90;;;2.41;100.00;95026.59;10416101;28;2065;-74
2023/01/08 07:49:34;;;;;;;;;;;3.30;99.90;;;2.65;100.00;95027.22;10413095;28;2031;-75
2023/01/08 07:54:37;;;;;;;;;;;3.50;99.90;;;2.76;100.00;95028.19;10411132;28;2032;-76
2023/01/08 07:59:40;;;;;;;;;;;3.60;99.90;;;2.87;100.00;95026.50;10413941;28;2057;-76
2023/01/08 08:04:43;;;;;;;;;;;3.80;99.90;;;3.11;100.00;95029.75;10414334;28;2049;-74
2023/01/08 08:09:45;;;;;;;;;;;3.90;99.90;;;3.34;100.00;95024.22;10418952;28;1976;-76
2023/01/08 08:14:48;;;;;;;;;;;4.10;99.90;;;3.55;100.00;95014.66;10413066;28;2292;-78
2023/01/08 08:19:52;;;;;;;;;;;4.30;99.90;;;3.79;100.00;95023.16;10410677;28;2126;-76
2023/01/08 08:24:54;;;;;;;;;;;4.50;99.90;;;4.10;100.00;95024.28;10413170;28;1995;-77
2023/01/08 08:29:57;;;;;;;;;;;4.70;99.90;;;4.34;100.00;95032.78;10410074;28;2118;-77
2023/01/08 08:35:00;;;;;;;;;;;4.90;99.90;;;4.53;100.00;95035.88;10412708;28;2024;-77
2023/01/08 08:40:02;;;;;;;;;;;5.20;99.90;;;4.72;100.00;95023.78;10414591;28;2077;-76
2023/01/08 08:45:05;;;;;;;;;;;5.40;99.90;;;4.93;100.00;95026.56;10414374;28;2043;-76
2023/01/08 08:50:08;;;;;;;;;;;5.50;99.90;;;4.98;100.00;95021.28;10409953;28;2031;-76
2023/01/08 08:55:13;;;;;;;;;;;5.70;99.90;;;4.99;100.00;95036.22;10410646;28;2106;-76
2023/01/08 09:00:16;;;;;;;;;;;5.80;99.90;;;5.02;100.00;95019.69;10409660;28;2004;-76
2023/01/08 09:05:19;;;;;;;;;;;5.90;99.90;;;5.20;100.00;95016.63;10410011;28;2095;-75
2023/01/08 09:10:22;;;;;;;;;;;6.00;99.90;;;5.40;100.00;95029.25;10410032;28;1992;-75
2023/01/08 09:15:25;;;;;;;;;;;6.10;99.90;;;5.64;100.00;95034.97;10411898;28;2009;-75
2023/01/08 09:20:27;;;;;;;;;;;6.50;99.90;;;6.01;100.00;95032.19;10410896;28;1999;-75
2023/01/08 09:25:30;;;;;;;;;;;6.50;99.90;;;6.12;100.00;95038.38;10409988;28;1985;-75
2023/01/08 09:30:33;;;;;;;;;;;6.80;99.90;;;6.14;100.00;95034.38;10414977;28;2031;-76
2023/01/08 09:35:35;;;;;;;;;;;6.90;99.90;;;6.29;100.00;95036.25;10410627;28;2072;-74
2023/01/08 09:40:38;;;;;;;;;;;7.00;99.90;;;6.44;100.00;95044.31;10412598;28;1991;-74
2023/01/08 09:45:41;;;;;;;;;;;7.30;99.90;;;6.73;100.00;95038.44;10413318;28;2124;-74
2023/01/08 09:50:44;;;;;;;;;;;7.30;99.90;;;6.78;100.00;95033.09;10405573;28;2110;-74
2023/01/08 09:55:46;;;;;;;;;;;7.40;99.90;;;6.82;100.00;95017.34;10407681;28;2013;-78
2023/01/08 10:00:53;;;;;;;;;;;7.60;99.90;;;6.73;100.00;94993.03;10409845;28;2027;-77
2023/01/08 10:05:55;;;;;;;;;;;7.60;99.90;;;6.90;100.00;94982.06;10412106;28;2055;-77
2023/01/08 10:10:58;;;;;;;;;;;7.60;99.90;;;7.01;100.00;94984.47;10407294;28;2279;-80
2023/01/08 10:16:03;;;;;;;;;;;7.70;99.90;;;7.02;100.00;94991.41;10411392;28;2101;-75
2023/01/08 10:21:06;;;;;;;;;;;7.80;99.90;;;6.87;100.00;94987.94;10407557;28;2010;-76
2023/01/08 10:26:08;;;;;;;;;;;7.80;99.90;;;6.77;100.00;94994.91;10406799;28;2188;-78
2023/01/08 10:31:11;;;;;;;;;;;7.70;99.90;;;6.84;100.00;94983.16;10405788;28;1982;-76
2023/01/08 10:36:14;;;;;;;;;;;7.80;99.90;;;7.25;100.00;94983.84;10406200;28;2084;-77
2023/01/08 10:41:17;;;;;;;;;;;8.00;99.90;;;7.78;100.00;94968.16;10410214;28;2118;-78
2023/01/08 10:46:19;;;;;;;;;;;8.40;99.90;;;8.39;97.93;94962.44;10404310;28;2108;-77
2023/01/08 10:51:23;;;;;;;;;;;8.70;99.90;;;8.90;92.53;94967.38;10407676;28;2067;-77
2023/01/08 10:56:25;;;;;;;;;;;9.40;99.90;;;8.81;88.54;94961.06;10406598;28;2051;-76
2023/01/08 11:01:28;;;;;;;;;;;9.50;99.90;;;8.63;91.51;94971.38;10404225;28;2061;-77
2023/01/08 11:06:31;;;;;;;;;;;9.50;99.90;;;8.15;90.82;94966.91;10404621;28;2058;-78
2023/01/08 11:11:34;;;;;;;;;;;9.30;99.90;;;8.11;91.05;94983.50;10405705;28;2014;-77
2023/01/08 11:16:36;;;;;;;;;;;9.10;99.90;;;8.04;93.33;94969.63;10412499;28;2016;-77
2023/01/08 11:21:39;;;;;;;;;;;9.00;99.90;;;7.99;93.26;94966.16;10405066;28;2039;-77
2023/01/08 11:26:42;;;;;;;;;;;9.00;99.90;;;8.03;92.18;94954.66;10404056;28;2023;-77
2023/01/08 11:31:45;;;;;;;;;;;8.90;99.90;;;7.99;90.90;94907.28;10405165;28;2126;-78
2023/01/08 11:36:47;;;;;;;;;;;9.00;99.90;;;8.19;90.30;94885.72;10406073;28;2372;-76
2023/01/08 11:41:50;;;;;;;;;;;9.00;99.90;;;8.70;86.07;94895.22;10409339;28;2027;-77
2023/01/08 11:46:53;;;;;;;;;;;9.30;99.90;;;9.16;84.86;94899.03;10405736;28;2055;-77
2023/01/08 11:51:56;;;;;;;;;;;9.60;99.90;;;9.12;79.35;94881.91;10403361;28;2083;-75
2023/01/08 11:56:58;;;;;;;;;;;9.90;99.90;;;9.15;79.73;94864.44;10411542;28;2080;-76
2023/01/08 12:02:01;;;;;;;;;;;10.00;99.90;;;8.96;81.99;94855.56;10412857;28;2119;-75
2023/01/08 12:07:04;;;;;;;;;;;9.90;99.90;;;9.01;86.09;94868.91;10411503;28;2097;-77
2023/01/08 12:12:06;;;;;;;;;;;9.90;99.90;;;9.02;79.20;94871.31;10419448;28;2099;-75
2023/01/08 12:17:09;;;;;;;;;;;9.90;99.90;;;8.98;81.26;94872.97;10413156;28;2059;-76
2023/01/08 12:22:12;;;;;;;;;;;10.00;99.90;;;9.27;79.34;94867.53;10411335;28;2043;-76
2023/01/08 12:27:14;;;;;;;;;;;10.00;99.90;;;9.31;80.32;94865.09;10423849;28;2061;-76
2023/01/08 12:32:17;;;;;;;;;;;10.10;99.90;;;9.21;78.98;94858.75;10413101;28;2073;-76
2023/01/08 12:37:23;;;;;;;;;;;10.20;99.90;;;9.27;79.83;94856.81;10411784;28;2140;-77
2023/01/08 12:42:27;;;;;;;;;;;10.10;99.90;;;9.19;79.99;94841.34;10411954;28;2036;-76
2023/01/08 12:47:29;;;;;;;;;;;10.20;99.90;;;9.13;82.89;94829.91;10410578;28;2055;-76
2023/01/08 12:52:35;;;;;;;;;;;10.10;99.90;;;8.93;83.89;94811.38;10410439;28;2021;-77
2023/01/08 12:57:38;;;;;;;;;;;10.00;99.90;;;8.80;86.35;94804.03;10410455;28;1994;-75
2023/01/08 13:02:40;;;;;;;;;;;9.90;99.90;;;8.82;85.50;94791.13;10413148;28;2360;-77
2023/01/08 13:07:43;;;;;;;;;;;9.90;99.90;;;8.72;85.07;94776.00;10409997;28;2039;-74
2023/01/08 13:12:46;;;;;;;;;;;9.70;99.90;;;8.43;88.34;94777.91;10415589;28;1994;-76
2023/01/08 13:17:49;;;;;;;;;;;9.60;99.90;;;8.39;90.76;94777.66;10410066;28;2036;-78
2023/01/08 13:22:51;;;;;;;;;;;9.60;99.90;;;8.50;92.72;94779.16;10409796;28;2035;-76
2023/01/08 13:27:54;;;;;;;;;;;9.50;99.90;;;8.59;90.04;94774.78;10408941;28;2038;-76
2023/01/08 13:32:57;;;;;;;;;;;9.60;99.90;;;8.52;87.43;94766.28;10407427;28;2023;-77
2023/01/08 13:37:59;;;;;;;;;;;9.50;99.90;;;8.48;90.53;94765.28;10408061;28;2151;-78
2023/01/08 13:43:02;;;;;;;;;;;9.50;99.90;;;8.37;91.59;94751.19;10412008;28;2411;-77
2023/01/08 13:48:05;;;;;;;;;;;9.40;99.90;;;8.32;91.41;94755.75;10406705;28;1978;-78
2023/01/08 13:53:07;;;;;;;;;;;9.40;99.90;;;8.26;91.00;94746.19;10409798;28;1968;-79
2023/01/08 13:58:10;;;;;;;;;;;9.30;99.90;;;8.38;90.51;94735.91;10408545;28;2072;-76
2023/01/08 14:03:13;;;;;;;;;;;9.30;99.90;;;8.19;95.05;94751.88;10410571;28;2048;-79
2023/01/08 14:08:15;;;;;;;;;;;9.30;99.90;;;8.19;92.81;94745.72;10411406;28;2361;-77
2023/01/08 14:13:18;;;;;;;;;;;9.30;99.90;;;8.12;94.46;94748.72;10424598;28;1968;-78
2023/01/08 14:18:21;;;;;;;;;;;9.20;99.90;;;8.24;95.50;94753.72;10409494;28;2117;-79
2023/01/08 14:23:24;;;;;;;;;;;9.10;99.90;;;8.26;93.51;94759.56;10409122;28;2074;-76
2023/01/08 14:28:26;;;;;;;;;;;9.20;99.90;;;8.34;93.14;94762.44;10405234;28;2064;-77
2023/01/08 14:33:29;;;;;;;;;;;9.30;99.90;;;8.42;93.64;94761.06;10406481;28;2095;-76
2023/01/08 14:38:32;;;;;;;;;;;9.30;99.90;;;8.46;90.66;94772.81;10408077;28;2041;-77
2023/01/08 14:43:34;;;;;;;;;;;9.40;99.90;;;8.37;91.77;94764.56;10410646;28;2036;-76
2023/01/08 14:48:39;;;;;;;;;;;9.50;99.90;;;8.48;91.09;94759.91;10407279;28;2064;-75
2023/01/08 14:53:42;;;;;;;;;;;;;;;8.47;92.63;94752.97;10406082;28;2035;-75
2023/01/08 14:58:45;;;;;;;;;;;9.40;99.90;;;8.32;92.50;94745.84;10406532;28;2026;-75
2023/01/08 15:03:48;;;;;;;;;;;9.40;99.90;;;8.25;94.26;94745.38;10406365;28;1992;-77
2023/01/08 15:08:51;;;;;;;;;;;9.30;99.90;;;8.31;95.57;94738.09;10406110;28;2016;-76
2023/01/08 15:13:53;;;;;;;;;;;9.40;99.90;;;8.31;93.43;94730.06;10415337;28;2011;-78
2023/01/08 15:18:56;;;;;;;;;;;9.30;99.90;;;8.00;97.05;94725.03;10405383;28;2108;-78
2023/01/08 15:23:59;;;;;;;;;;;9.20;99.90;;;7.92;96.78;94712.25;10404727;28;2158;-76
2023/01/08 15:29:01;;;;;;;;;;;9.10;99.90;;;7.99;97.15;94707.38;10408332;28;2028;-76
2023/01/08 15:34:04;;;;;;;;;;;9.00;99.90;;;7.84;98.85;94702.19;10411618;28;2004;-77
2023/01/08 15:39:07;;;;;;;;;;;9.00;99.90;;;7.66;100.00;94711.69;10416906;28;2047;-78
2023/01/08 15:44:11;;;;;;;;;;;8.80;99.90;;;7.47;100.00;94706.25;10435221;28;2067;-77
2023/01/08 15:49:15;;;;;;;;;;;8.70;99.90;;;7.44;100.00;94698.75;10442145;28;1689;-76
2023/01/08 15:54:18;;;;;;;;;;;8.80;99.90;;;7.29;100.00;94690.88;10443080;28;1997;-76
2023/01/08 15:59:21;;;;;;;;;;;8.80;99.90;;;7.11;100.00;94689.66;10438764;28;1652;-76
2023/01/08 16:04:23;;;;;;;;;;;8.30;99.90;;;6.91;100.00;94687.91;10442025;28;1657;-77
2023/01/08 16:09:26;;;;;;;;;;;8.10;99.90;;;6.82;100.00;94686.91;10431000;28;1988;-75
2023/01/08 16:14:32;;;;;;;;;;;8.00;99.90;;;6.87;100.00;94681.56;10448129;28;1910;-77
2023/01/08 16:19:36;;;;;;;;;;;8.00;99.90;;;6.82;100.00;94683.44;10437218;28;1681;-71
2023/01/08 16:24:38;;;;;;;;;;;7.90;99.90;;;6.47;100.00;94661.97;10427137;28;1625;-72
2023/01/08 16:29:42;;;;;;;;;;;7.80;99.90;;;6.31;100.00;94657.00;10446553;28;1918;-71
2023/01/08 16:34:44;;;;;;;;;;;7.60;99.90;;;6.10;100.00;94649.06;10438769;28;1680;-71
2023/01/08 16:39:47;;;;;;;;;;;7.40;99.90;;;5.96;100.00;94622.16;10445608;28;1642;-69
2023/01/08 16:44:50;;;;;;;;;;;7.30;99.90;;;5.85;100.00;94611.78;10442782;28;1588;-70
2023/01/08 16:49:53;;;;;;;;;;;7.10;99.90;;;5.67;100.00;94591.84;10446066;28;1914;-70
2023/01/08 16:54:55;;;;;;;;;;;7.00;99.90;;;5.55;100.00;94588.69;10445542;28;1651;-70
2023/01/08 16:59:58;;;;;;;;;;;6.80;99.90;;;5.45;100.00;94576.16;10441745;28;1947;-70
2023/01/08 17:05:01;;;;;;;;;;;6.70;99.90;;;5.39;100.00;94571.91;10439512;28;1643;-71
2023/01/08 17:10:03;;;;;;;;;;;6.70;99.90;;;5.16;100.00;94557.31;10440300;28;1971;-70
2023/01/08 17:15:07;;;;;;;;;;;6.40;99.90;;;5.05;100.00;94559.19;10436219;28;1630;-69
2023/01/08 17:20:09;;;;;;;;;;;6.30;99.90;;;4.96;100.00;94554.66;10462332;28;1616;-69
2023/01/08 17:25:13;;;;;;;;;;;6.20;99.90;;;4.79;100.00;94555.75;10443836;28;1632;-70
2023/01/08 17:30:15;;;;;;;;;;;6.10;99.90;;;4.75;100.00;94565.31;10441736;28;1965;-70
2023/01/08 17:35:18;;;;;;;;;;;6.00;99.90;;;4.79;100.00;94560.28;10444897;28;1640;-69
2023/01/08 17:40:21;;;;;;;;;;;6.00;99.90;;;4.83;100.00;94537.38;10434789;28;1644;-70
2023/01/08 17:45:24;;;;;;;;;;;6.00;99.90;;;4.89;100.00;94542.41;10442071;28;1633;-72
2023/01/08 17:50:26;;;;;;;;;;;6.00;99.90;;;4.95;100.00;94550.41;10443382;28;1977;-71
2023/01/08 17:55:29;;;;;;;;;;;6.00;99.90;;;5.00;100.00;94534.44;10433230;28;2115;-74
2023/01/08 18:00:32;;;;;;;;;;;6.10;99.90;;;5.02;100.00;94537.63;10434242;28;1608;-75
2023/01/08 18:05:35;;;;;;;;;;;6.10;99.90;;;5.00;100.00;94510.47;10433909;28;1593;-73
2023/01/08 18:10:38;;;;;;;;;;;6.10;99.90;;;5.02;100.00;94493.13;10443440;28;1973;-73
2023/01/08 18:15:41;;;;;;;;;;;6.10;99.90;;;5.10;100.00;94481.94;10432381;28;2005;-73
2023/01/08 18:20:43;;;;;;;;;;;6.10;99.90;;;5.15;100.00;94475.78;10433171;28;1640;-74
2023/01/08 18:25:46;;;;;;;;;;;6.20;99.90;;;5.15;100.00;94463.28;10436706;28;1620;-73
2023/01/08 18:30:49;;;;;;;;;;;6.20;99.90;;;5.06;100.00;94451.59;10438646;28;1910;-74
2023/01/08 18:35:52;;;;;;;;;;;6.20;99.90;;;5.06;100.00;94464.09;10439892;28;2010;-73
2023/01/08 18:40:56;;;;;;;;;;;6.10;99.90;;;4.97;100.00;94463.06;10424792;28;1605;-75
2023/01/08 18:45:59;;;;;;;;;;;6.10;99.90;;;4.92;100.00;94453.22;10438329;28;1633;-75
2023/01/08 18:51:04;;;;;;;;;;;6.10;99.90;;;4.76;100.00;94439.13;10431295;28;1922;-75
2023/01/08 18:56:07;;;;;;;;;;;6.00;99.90;;;4.71;100.00;94431.19;10424577;28;2025;-75
2023/01/08 19:01:09;;;;;;;;;;;5.90;99.90;;;4.72;100.00;94424.78;10433996;28;1684;-73
2023/01/08 19:06:12;;;;;;;;;;;5.80;99.90;;;4.68;100.00;94415.72;10433500;28;1648;-74
2023/01/08 19:11:15;;;;;;;;;;;5.80;99.90;;;4.76;100.00;94399.19;10423498;28;1981;-73
2023/01/08 19:16:19;;;;;;;;;;;5.80;99.90;;;4.75;100.00;94389.63;10433166;28;1691;-73
2023/01/08 19:21:22;;;;;;;;;;;5.80;99.90;;;4.76;100.00;94385.09;10399300;28;2035;-73
2023/01/08 19:26:24;;;;;;;;;;;5.80;99.90;;;4.70;100.00;94380.84;10405556;28;1984;-75
2023/01/08 19:31:27;;;;;;;;;;;6.30;99.90;;;4.71;100.00;94372.63;10409778;28;2000;-75
2023/01/08 19:36:30;;;;;;;;;;;6.30;99.90;;;4.65;100.00;94362.25;10403120;28;2102;-75
2023/01/08 19:46:53;;;;;;;;;;;5.70;99.90;;;4.60;100.00;94342.56;10403973;28;2099;-74
2023/01/08 19:51:56;;;;;;;;;;;5.70;99.90;;;4.50;100.00;94317.84;10402717;28;2085;-75
2023/01/08 19:56:59;;;;;;;;;;;5.70;99.90;;;4.46;100.00;94322.91;10402236;28;2035;-77
2023/01/08 20:02:01;;;;;;;;;;;5.60;99.90;;;4.42;100.00;94305.09;10405510;28;2144;-75
2023/01/08 20:07:04;;;;;;;;;;;5.60;99.90;;;4.31;100.00;94291.03;10402373;28;2103;-76
2023/01/08 20:12:07;;;;;;;;;;;5.50;99.90;;;4.29;100.00;94278.00;10402350;28;2027;-77
2023/01/08 20:17:11;;;;;;;;;;;5.40;99.90;;;4.40;100.00;94281.44;10405733;28;2071;-78
2023/01/08 20:22:13;;;;;;;;;;;5.40;99.90;;;4.31;100.00;94280.38;10409406;28;2245;-74
2023/01/08 20:27:16;;;;;;;;;;;5.50;99.90;;;4.25;100.00;94294.75;10410364;28;2127;-75
2023/01/08 20:32:19;;;;;;;;;;;5.40;99.90;;;4.32;100.00;94284.63;10409482;28;2122;-74
2023/01/08 20:37:25;;;;;;;;;;;5.40;99.90;;;4.38;100.00;94277.44;10409487;28;1945;-75
2023/01/08 20:42:27;;;;;;;;;;;5.50;99.90;;;4.45;100.00;94270.75;10413184;28;1992;-76
2023/01/08 20:47:36;;;;;;;;;;;5.50;99.90;;;4.44;100.00;94269.16;10408749;28;2009;-74
2023/01/08 20:52:38;;;;;;;;;;;5.50;99.90;;;4.60;100.00;94275.22;10406639;28;1993;-74
2023/01/08 20:57:41;;;;;;;;;;;5.60;99.90;;;4.51;100.00;94267.00;10408339;28;1980;-73
2023/01/08 21:02:44;;;;;;;;;;;5.70;99.90;;;4.52;100.00;94262.50;10405140;28;1992;-74
2023/01/08 21:07:47;;;;;;;;;;;5.60;99.90;;;4.59;100.00;94263.78;10408264;28;2082;-76
2023/01/08 21:12:50;;;;;;;;;;;5.70;99.90;;;4.73;100.00;94273.84;10407953;28;2125;-76
2023/01/08 21:17:53;;;;;;;;;;;5.70;99.90;;;4.82;100.00;94266.88;10415407;28;2125;-77
2023/01/08 21:22:56;;;;;;;;;;;5.80;99.90;;;4.92;100.00;94245.53;10407165;28;2001;-75
2023/01/08 21:27:59;;;;;;;;;;;5.80;99.90;;;4.94;100.00;94243.38;10403548;28;2250;-74
2023/01/08 21:33:01;;;;;;;;;;;6.00;99.90;;;5.06;100.00;94240.38;10409979;28;2098;-76
2023/01/08 21:38:04;;;;;;;;;;;6.00;99.90;;;5.10;100.00;94223.59;10406336;28;1964;-76
2023/01/08 21:48:27;;;;;;;;;;;6.10;99.90;;;5.06;100.00;94235.06;10404772;28;2115;-75
2023/01/08 21:53:33;;;;;;;;;;;6.10;99.90;;;5.27;100.00;94233.84;10407390;28;2114;-76
2023/01/08 21:58:38;;;;;;;;;;;6.20;99.90;;;5.23;100.00;94224.81;10406014;28;2038;-76
2023/01/08 22:03:40;;;;;;;;;;;6.20;99.90;;;5.25;100.00;94212.00;10405396;28;2206;-76
2023/01/08 22:08:44;;;;;;;;;;;6.30;99.90;;;5.26;100.00;94204.81;10405607;28;1969;-75
2023/01/08 22:13:46;;;;;;;;;;;6.30;99.90;;;5.22;100.00;94203.81;10411487;28;2003;-74
2023/01/08 22:18:49;;;;;;;;;;;6.30;99.90;;;5.17;100.00;94185.97;10404733;28;2025;-74
2023/01/08 22:23:52;;;;;;;;;;;6.30;99.90;;;5.17;100.00;94193.97;10404563;28;2475;-74
2023/01/08 22:28:54;;;;;;;;;;;6.20;99.90;;;5.16;100.00;94173.75;10403240;28;2015;-76
2023/01/08 22:33:57;;;;;;;;;;;6.20;99.90;;;4.96;100.00;94141.91;10404410;28;2071;-74
2023/01/08 22:39:00;;;;;;;;;;;6.10;99.90;;;4.77;100.00;94131.13;10406445;28;2021;-74
2023/01/08 22:44:03;;;;;;;;;;;6.00;99.90;;;4.71;100.00;94127.72;10404671;28;2002;-75
2023/01/08 22:49:05;;;;;;;;;;;5.90;99.90;;;4.57;100.00;94111.56;10402571;28;2056;-74
2023/01/08 22:54:09;;;;;;;;;;;5.80;99.90;;;4.55;100.00;94113.72;10404974;28;2068;-74
2023/01/08 22:59:12;;;;;;;;;;;5.70;99.90;;;4.64;100.00;94089.97;10406914;28;2042;-74
2023/01/08 23:04:15;;;;;;;;;;;5.80;99.90;;;4.66;100.00;94077.19;10407578;28;2098;-75
2023/01/08 23:09:18;;;;;;;;;;;5.70;99.90;;;4.69;100.00;94075.84;10416355;28;2058;-74
2023/01/08 23:14:21;;;;;;;;;;;5.80;99.90;;;4.74;100.00;94052.63;10409688;28;1988;-74
2023/01/08 23:19:24;;;;;;;;;;;5.80;99.90;;;4.71;100.00;94058.53;10408822;28;2024;-75
2023/01/08 23:24:29;;;;;;;;;;;5.80;99.90;;;4.78;100.00;94059.00;10405264;28;1992;-74
2023/01/08 23:29:32;;;;;;;;;;;5.80;99.90;;;4.82;100.00;94053.91;10406560;28;2507;-74
2023/01/08 23:34:34;;;;;;;;;;;5.90;99.90;;;4.80;100.00;94035.53;10407836;28;2078;-75
2023/01/08 23:39:37;;;;;;;;;;;5.90;99.90;;;4.84;100.00;94025.94;10405749;28;2016;-74
2023/01/08 23:44:40;;;;;;;;;;;5.90;99.90;;;4.77;100.00;94032.63;10407811;28;2063;-73
2023/01/08 23:49:43;;;;;;;;;;;5.90;99.90;;;4.99;100.00;94038.31;10408158;28;2209;-75
2023/01/08 23:54:45;;;;;;;;;;;5.90;99.90;;;4.98;100.00;94036.72;10412512;28;2019;-74